sensor_id;sensor_type;location;lat;lon;timestamp;temperature;humidity
36652;DHT22;53334;51.976;20.144;2022-10-16T00:01:38;26.50;50.50
36652;DHT22;53334;51.976;20.144;2022-10-16T00:04:12;26.50;50.50
36652;DHT22;53334;51.976;20.144;2022-10-16T00:06:46;26.50;50.60
36652;DHT22;53334;51.976;20.144;2022-10-16T00:09:22;26.50;50.70
36652;DHT22;53334;51.976;20.144;2022-10-16T00:11:56;26.50;50.90
36652;DHT22;53334;51.976;20.144;2022-10-16T00:14:30;26.50;50.90
36652;DHT22;53334;51.976;20.144;2022-10-16T00:17:04;26.50;50.90
36652;DHT22;53334;51.976;20.144;2022-10-16T00:19:38;26.50;50.90
36652;DHT22;53334;51.976;20.144;2022-10-16T00:22:30;26.40;50.80
36652;DHT22;53334;51.976;20.144;2022-10-16T00:25:06;26.50;51.00
36652;DHT22;53334;51.976;20.144;2022-10-16T00:27:40;26.50;51.10
36652;DHT22;53334;51.976;20.144;2022-10-16T00:30:14;26.50;51.10
36652;DHT22;53334;51.976;20.144;2022-10-16T00:32:48;26.50;51.10
36652;DHT22;53334;51.976;20.144;2022-10-16T00:35:22;26.50;51.10
36652;DHT22;53334;51.976;20.144;2022-10-16T00:37:56;26.40;51.00
36652;DHT22;53334;51.976;20.144;2022-10-16T00:40:31;26.50;51.10
36652;DHT22;53334;51.976;20.144;2022-10-16T00:43:12;26.50;51.10
36652;DHT22;53334;51.976;20.144;2022-10-16T00:45:46;26.50;51.20
36652;DHT22;53334;51.976;20.144;2022-10-16T00:48:20;26.40;51.10
36652;DHT22;53334;51.976;20.144;2022-10-16T00:50:54;26.40;51.10
36652;DHT22;53334;51.976;20.144;2022-10-16T00:53:29;26.40;51.10
36652;DHT22;53334;51.976;20.144;2022-10-16T00:56:06;26.40;51.10
36652;DHT22;53334;51.976;20.144;2022-10-16T00:58:40;26.50;51.20
36652;DHT22;53334;51.976;20.144;2022-10-16T01:01:14;26.40;51.40
36652;DHT22;53334;51.976;20.144;2022-10-16T01:03:48;26.50;51.50
36652;DHT22;53334;51.976;20.144;2022-10-16T01:06:24;26.40;51.50
36652;DHT22;53334;51.976;20.144;2022-10-16T01:09:12;26.50;51.50
36652;DHT22;53334;51.976;20.144;2022-10-16T01:12:00;26.50;51.60
36652;DHT22;53334;51.976;20.144;2022-10-16T01:14:42;26.50;51.60
36652;DHT22;53334;51.976;20.144;2022-10-16T01:17:22;26.40;51.60
36652;DHT22;53334;51.976;20.144;2022-10-16T01:20:10;26.50;51.70
36652;DHT22;53334;51.976;20.144;2022-10-16T01:22:59;26.50;51.80
36652;DHT22;53334;51.976;20.144;2022-10-16T01:25:59;26.50;51.80
36652;DHT22;53334;51.976;20.144;2022-10-16T01:28:41;26.50;51.80
36652;DHT22;53334;51.976;20.144;2022-10-16T01:31:19;26.50;51.80
36652;DHT22;53334;51.976;20.144;2022-10-16T01:33:59;26.50;51.80
36652;DHT22;53334;51.976;20.144;2022-10-16T01:36:38;26.50;51.80
36652;DHT22;53334;51.976;20.144;2022-10-16T01:39:14;26.50;51.80
36652;DHT22;53334;51.976;20.144;2022-10-16T01:42:05;26.50;51.80
36652;DHT22;53334;51.976;20.144;2022-10-16T01:44:42;26.50;51.80
36652;DHT22;53334;51.976;20.144;2022-10-16T01:47:18;26.40;51.70
36652;DHT22;53334;51.976;20.144;2022-10-16T01:49:55;26.40;51.80
36652;DHT22;53334;51.976;20.144;2022-10-16T01:52:33;26.40;51.80
36652;DHT22;53334;51.976;20.144;2022-10-16T01:55:10;26.40;51.80
36652;DHT22;53334;51.976;20.144;2022-10-16T01:57:48;26.40;51.80
36652;DHT22;53334;51.976;20.144;2022-10-16T02:00:25;26.40;51.80
36652;DHT22;53334;51.976;20.144;2022-10-16T02:03:01;26.40;51.80
36652;DHT22;53334;51.976;20.144;2022-10-16T02:05:41;26.40;51.80
36652;DHT22;53334;51.976;20.144;2022-10-16T02:08:16;26.50;52.20
36652;DHT22;53334;51.976;20.144;2022-10-16T02:10:50;26.40;52.00
36652;DHT22;53334;51.976;20.144;2022-10-16T02:13:28;26.40;52.00
36652;DHT22;53334;51.976;20.144;2022-10-16T02:16:04;26.40;52.00
36652;DHT22;53334;51.976;20.144;2022-10-16T02:18:39;26.40;52.00
36652;DHT22;53334;51.976;20.144;2022-10-16T02:21:17;26.50;52.00
36652;DHT22;53334;51.976;20.144;2022-10-16T02:23:57;26.50;52.00
36652;DHT22;53334;51.976;20.144;2022-10-16T02:26:39;26.50;52.00
36652;DHT22;53334;51.976;20.144;2022-10-16T02:29:16;26.50;52.00
36652;DHT22;53334;51.976;20.144;2022-10-16T02:31:55;26.50;52.00
36652;DHT22;53334;51.976;20.144;2022-10-16T02:34:32;26.50;51.90
36652;DHT22;53334;51.976;20.144;2022-10-16T02:37:07;26.50;51.90
36652;DHT22;53334;51.976;20.144;2022-10-16T02:39:42;26.50;51.90
36652;DHT22;53334;51.976;20.144;2022-10-16T02:42:18;26.50;51.90
36652;DHT22;53334;51.976;20.144;2022-10-16T02:44:52;26.50;51.90
36652;DHT22;53334;51.976;20.144;2022-10-16T02:47:27;26.50;51.90
36652;DHT22;53334;51.976;20.144;2022-10-16T02:50:01;26.50;51.90
36652;DHT22;53334;51.976;20.144;2022-10-16T02:52:35;26.50;51.90
36652;DHT22;53334;51.976;20.144;2022-10-16T02:55:09;26.60;51.90
36652;DHT22;53334;51.976;20.144;2022-10-16T02:57:43;26.60;51.90
36652;DHT22;53334;51.976;20.144;2022-10-16T03:00:17;26.60;51.90
36652;DHT22;53334;51.976;20.144;2022-10-16T03:02:53;26.60;52.00
36652;DHT22;53334;51.976;20.144;2022-10-16T03:05:27;26.60;52.00
36652;DHT22;53334;51.976;20.144;2022-10-16T03:08:01;26.60;51.90
36652;DHT22;53334;51.976;20.144;2022-10-16T03:10:35;26.60;51.90
36652;DHT22;53334;51.976;20.144;2022-10-16T03:13:09;26.60;51.90
36652;DHT22;53334;51.976;20.144;2022-10-16T03:15:43;26.60;51.90
36652;DHT22;53334;51.976;20.144;2022-10-16T03:18:18;26.60;51.90
36652;DHT22;53334;51.976;20.144;2022-10-16T03:20:52;26.60;51.90
36652;DHT22;53334;51.976;20.144;2022-10-16T03:23:26;26.60;51.90
36652;DHT22;53334;51.976;20.144;2022-10-16T03:26:05;26.60;51.80
36652;DHT22;53334;51.976;20.144;2022-10-16T03:28:39;26.60;51.70
36652;DHT22;53334;51.976;20.144;2022-10-16T03:31:13;26.60;51.70
36652;DHT22;53334;51.976;20.144;2022-10-16T03:33:48;26.60;51.70
36652;DHT22;53334;51.976;20.144;2022-10-16T03:36:22;26.60;51.70
36652;DHT22;53334;51.976;20.144;2022-10-16T03:38:56;26.60;51.70
36652;DHT22;53334;51.976;20.144;2022-10-16T03:41:30;26.60;51.80
36652;DHT22;53334;51.976;20.144;2022-10-16T03:44:04;26.70;51.90
36652;DHT22;53334;51.976;20.144;2022-10-16T03:46:38;26.70;51.80
36652;DHT22;53334;51.976;20.144;2022-10-16T03:49:14;26.70;51.80
36652;DHT22;53334;51.976;20.144;2022-10-16T03:51:48;26.70;51.90
36652;DHT22;53334;51.976;20.144;2022-10-16T03:54:22;26.70;51.90
36652;DHT22;53334;51.976;20.144;2022-10-16T03:56:55;26.70;51.90
36652;DHT22;53334;51.976;20.144;2022-10-16T03:59:29;26.70;51.80
36652;DHT22;53334;51.976;20.144;2022-10-16T04:02:03;26.60;51.80
36652;DHT22;53334;51.976;20.144;2022-10-16T04:04:39;26.70;51.80
36652;DHT22;53334;51.976;20.144;2022-10-16T04:07:13;26.70;51.80
36652;DHT22;53334;51.976;20.144;2022-10-16T04:09:47;26.70;51.90
36652;DHT22;53334;51.976;20.144;2022-10-16T04:12:20;26.70;51.90
36652;DHT22;53334;51.976;20.144;2022-10-16T04:14:55;26.70;51.90
36652;DHT22;53334;51.976;20.144;2022-10-16T04:17:28;26.70;52.10
36652;DHT22;53334;51.976;20.144;2022-10-16T04:20:05;26.70;52.30
36652;DHT22;53334;51.976;20.144;2022-10-16T04:22:39;26.70;52.30
36652;DHT22;53334;51.976;20.144;2022-10-16T04:25:13;26.70;52.30
36652;DHT22;53334;51.976;20.144;2022-10-16T04:27:47;26.70;52.40
36652;DHT22;53334;51.976;20.144;2022-10-16T04:30:21;26.70;52.40
36652;DHT22;53334;51.976;20.144;2022-10-16T04:32:55;26.70;52.50
36652;DHT22;53334;51.976;20.144;2022-10-16T04:35:31;26.70;52.50
36652;DHT22;53334;51.976;20.144;2022-10-16T04:38:05;26.70;52.50
36652;DHT22;53334;51.976;20.144;2022-10-16T04:40:39;26.70;52.50
36652;DHT22;53334;51.976;20.144;2022-10-16T04:43:14;26.70;52.50
36652;DHT22;53334;51.976;20.144;2022-10-16T04:45:48;26.70;52.50
36652;DHT22;53334;51.976;20.144;2022-10-16T04:48:24;26.70;52.50
36652;DHT22;53334;51.976;20.144;2022-10-16T04:50:59;26.70;52.50
36652;DHT22;53334;51.976;20.144;2022-10-16T04:53:33;26.70;52.60
36652;DHT22;53334;51.976;20.144;2022-10-16T04:56:07;26.70;52.50
36652;DHT22;53334;51.976;20.144;2022-10-16T04:58:41;26.70;52.50
36652;DHT22;53334;51.976;20.144;2022-10-16T05:01:15;26.70;52.50
36652;DHT22;53334;51.976;20.144;2022-10-16T05:03:49;26.70;52.40
36652;DHT22;53334;51.976;20.144;2022-10-16T05:06:24;26.70;52.50
36652;DHT22;53334;51.976;20.144;2022-10-16T05:08:59;26.70;52.50
36652;DHT22;53334;51.976;20.144;2022-10-16T05:11:33;26.70;52.50
36652;DHT22;53334;51.976;20.144;2022-10-16T05:14:07;26.70;52.50
36652;DHT22;53334;51.976;20.144;2022-10-16T05:16:42;26.70;52.50
36652;DHT22;53334;51.976;20.144;2022-10-16T05:19:16;26.70;52.40
36652;DHT22;53334;51.976;20.144;2022-10-16T05:22:01;26.70;52.40
36652;DHT22;53334;51.976;20.144;2022-10-16T05:24:34;26.70;52.40
36652;DHT22;53334;51.976;20.144;2022-10-16T05:27:09;26.70;52.50
36652;DHT22;53334;51.976;20.144;2022-10-16T05:29:43;26.70;52.40
36652;DHT22;53334;51.976;20.144;2022-10-16T05:32:18;26.70;52.40
36652;DHT22;53334;51.976;20.144;2022-10-16T05:34:52;26.70;52.50
36652;DHT22;53334;51.976;20.144;2022-10-16T05:37:27;26.70;52.50
36652;DHT22;53334;51.976;20.144;2022-10-16T05:40:01;26.70;52.40
36652;DHT22;53334;51.976;20.144;2022-10-16T05:42:37;26.80;52.40
36652;DHT22;53334;51.976;20.144;2022-10-16T05:45:11;26.70;52.50
36652;DHT22;53334;51.976;20.144;2022-10-16T05:47:45;26.70;52.70
36652;DHT22;53334;51.976;20.144;2022-10-16T05:50:19;26.70;52.70
36652;DHT22;53334;51.976;20.144;2022-10-16T05:52:55;26.80;52.80
36652;DHT22;53334;51.976;20.144;2022-10-16T05:55:30;26.80;52.80
36652;DHT22;53334;51.976;20.144;2022-10-16T05:58:04;26.80;52.90
36652;DHT22;53334;51.976;20.144;2022-10-16T06:00:38;26.80;52.90
36652;DHT22;53334;51.976;20.144;2022-10-16T06:03:12;26.80;53.00
36652;DHT22;53334;51.976;20.144;2022-10-16T06:05:45;26.80;52.90
36652;DHT22;53334;51.976;20.144;2022-10-16T06:08:22;26.80;52.90
36652;DHT22;53334;51.976;20.144;2022-10-16T06:11:03;26.80;52.90
36652;DHT22;53334;51.976;20.144;2022-10-16T06:13:37;26.80;53.00
36652;DHT22;53334;51.976;20.144;2022-10-16T06:16:14;26.80;52.90
36652;DHT22;53334;51.976;20.144;2022-10-16T06:18:50;26.80;52.90
36652;DHT22;53334;51.976;20.144;2022-10-16T06:21:25;26.80;52.90
36652;DHT22;53334;51.976;20.144;2022-10-16T06:24:01;26.80;52.80
36652;DHT22;53334;51.976;20.144;2022-10-16T06:26:35;26.80;53.00
36652;DHT22;53334;51.976;20.144;2022-10-16T06:29:09;26.80;53.10
36652;DHT22;53334;51.976;20.144;2022-10-16T06:31:43;26.80;53.30
36652;DHT22;53334;51.976;20.144;2022-10-16T06:34:17;26.80;53.40
36652;DHT22;53334;51.976;20.144;2022-10-16T06:36:51;26.90;53.50
36652;DHT22;53334;51.976;20.144;2022-10-16T06:39:26;26.90;53.50
36652;DHT22;53334;51.976;20.144;2022-10-16T06:42:00;26.90;53.60
36652;DHT22;53334;51.976;20.144;2022-10-16T06:44:40;26.90;53.60
36652;DHT22;53334;51.976;20.144;2022-10-16T06:47:14;26.80;48.10
36652;DHT22;53334;51.976;20.144;2022-10-16T06:49:48;26.80;44.90
36652;DHT22;53334;51.976;20.144;2022-10-16T06:52:28;26.60;43.70
36652;DHT22;53334;51.976;20.144;2022-10-16T06:55:04;26.40;43.60
36652;DHT22;53334;51.976;20.144;2022-10-16T06:57:38;26.30;44.40
36652;DHT22;53334;51.976;20.144;2022-10-16T07:00:12;26.30;46.10
36652;DHT22;53334;51.976;20.144;2022-10-16T07:02:46;26.20;47.50
36652;DHT22;53334;51.976;20.144;2022-10-16T07:05:20;26.20;48.20
36652;DHT22;53334;51.976;20.144;2022-10-16T07:07:54;26.30;49.30
36652;DHT22;53334;51.976;20.144;2022-10-16T07:10:29;26.30;49.50
36652;DHT22;53334;51.976;20.144;2022-10-16T07:13:03;26.30;49.60
36652;DHT22;53334;51.976;20.144;2022-10-16T07:15:38;26.30;49.50
36652;DHT22;53334;51.976;20.144;2022-10-16T07:18:12;26.40;49.90
36652;DHT22;53334;51.976;20.144;2022-10-16T07:20:46;26.40;50.20
36652;DHT22;53334;51.976;20.144;2022-10-16T07:23:20;26.40;50.50
36652;DHT22;53334;51.976;20.144;2022-10-16T07:25:55;26.40;50.60
36652;DHT22;53334;51.976;20.144;2022-10-16T07:28:30;26.40;50.60
36652;DHT22;53334;51.976;20.144;2022-10-16T07:31:05;26.40;50.40
36652;DHT22;53334;51.976;20.144;2022-10-16T07:33:41;26.50;50.20
36652;DHT22;53334;51.976;20.144;2022-10-16T07:36:18;26.40;50.20
36652;DHT22;53334;51.976;20.144;2022-10-16T07:38:53;26.50;50.20
36652;DHT22;53334;51.976;20.144;2022-10-16T07:41:33;26.50;50.10
36652;DHT22;53334;51.976;20.144;2022-10-16T07:44:09;26.50;49.80
36652;DHT22;53334;51.976;20.144;2022-10-16T07:46:43;26.50;49.70
36652;DHT22;53334;51.976;20.144;2022-10-16T07:49:17;26.50;49.70
36652;DHT22;53334;51.976;20.144;2022-10-16T07:51:51;26.50;49.60
36652;DHT22;53334;51.976;20.144;2022-10-16T07:54:25;26.50;49.40
36652;DHT22;53334;51.976;20.144;2022-10-16T07:57:00;26.50;49.20
36652;DHT22;53334;51.976;20.144;2022-10-16T07:59:34;26.60;49.30
36652;DHT22;53334;51.976;20.144;2022-10-16T08:02:08;26.60;49.30
36652;DHT22;53334;51.976;20.144;2022-10-16T08:04:42;26.60;49.00
36652;DHT22;53334;51.976;20.144;2022-10-16T08:07:16;26.60;48.80
36652;DHT22;53334;51.976;20.144;2022-10-16T08:09:50;26.60;48.80
36652;DHT22;53334;51.976;20.144;2022-10-16T08:12:26;26.60;48.70
36652;DHT22;53334;51.976;20.144;2022-10-16T08:15:00;26.60;48.70
36652;DHT22;53334;51.976;20.144;2022-10-16T08:17:34;26.60;48.80
36652;DHT22;53334;51.976;20.144;2022-10-16T08:20:09;26.60;49.00
36652;DHT22;53334;51.976;20.144;2022-10-16T08:22:43;26.60;49.50
36652;DHT22;53334;51.976;20.144;2022-10-16T08:25:17;26.60;50.00
36652;DHT22;53334;51.976;20.144;2022-10-16T08:27:53;26.70;50.80
36652;DHT22;53334;51.976;20.144;2022-10-16T08:30:27;26.70;51.20
36652;DHT22;53334;51.976;20.144;2022-10-16T08:33:01;26.70;51.90
36652;DHT22;53334;51.976;20.144;2022-10-16T08:35:36;26.70;52.10
36652;DHT22;53334;51.976;20.144;2022-10-16T08:38:10;26.80;52.30
36652;DHT22;53334;51.976;20.144;2022-10-16T08:40:50;26.70;53.00
36652;DHT22;53334;51.976;20.144;2022-10-16T08:43:40;26.80;53.30
36652;DHT22;53334;51.976;20.144;2022-10-16T08:46:35;26.80;52.40
36652;DHT22;53334;51.976;20.144;2022-10-16T08:49:12;26.80;52.40
36652;DHT22;53334;51.976;20.144;2022-10-16T08:51:47;26.80;52.30
36652;DHT22;53334;51.976;20.144;2022-10-16T08:54:29;26.80;52.30
36652;DHT22;53334;51.976;20.144;2022-10-16T08:57:09;26.80;52.10
36652;DHT22;53334;51.976;20.144;2022-10-16T08:59:46;26.80;51.70
36652;DHT22;53334;51.976;20.144;2022-10-16T09:02:26;26.80;51.40
36652;DHT22;53334;51.976;20.144;2022-10-16T09:05:28;26.80;51.10
36652;DHT22;53334;51.976;20.144;2022-10-16T09:08:08;26.80;51.30
36652;DHT22;53334;51.976;20.144;2022-10-16T09:10:51;26.80;50.60
36652;DHT22;53334;51.976;20.144;2022-10-16T09:13:31;26.80;50.80
36652;DHT22;53334;51.976;20.144;2022-10-16T09:16:15;26.80;51.30
36652;DHT22;53334;51.976;20.144;2022-10-16T09:18:57;26.80;51.50
36652;DHT22;53334;51.976;20.144;2022-10-16T09:21:36;26.80;51.40
36652;DHT22;53334;51.976;20.144;2022-10-16T09:24:14;26.80;51.80
36652;DHT22;53334;51.976;20.144;2022-10-16T09:26:49;26.80;52.00
36652;DHT22;53334;51.976;20.144;2022-10-16T09:29:23;26.80;51.90
36652;DHT22;53334;51.976;20.144;2022-10-16T09:32:10;26.80;51.80
36652;DHT22;53334;51.976;20.144;2022-10-16T09:34:48;26.80;51.80
36652;DHT22;53334;51.976;20.144;2022-10-16T09:37:23;26.80;51.90
36652;DHT22;53334;51.976;20.144;2022-10-16T09:39:58;26.80;51.60
36652;DHT22;53334;51.976;20.144;2022-10-16T09:42:38;26.80;51.50
36652;DHT22;53334;51.976;20.144;2022-10-16T09:45:21;26.80;51.30
36652;DHT22;53334;51.976;20.144;2022-10-16T09:47:57;26.80;51.20
36652;DHT22;53334;51.976;20.144;2022-10-16T09:50:32;26.80;51.50
36652;DHT22;53334;51.976;20.144;2022-10-16T09:53:11;26.90;51.70
36652;DHT22;53334;51.976;20.144;2022-10-16T09:55:49;26.80;51.50
36652;DHT22;53334;51.976;20.144;2022-10-16T09:58:23;26.90;51.50
36652;DHT22;53334;51.976;20.144;2022-10-16T10:00:58;26.80;52.10
36652;DHT22;53334;51.976;20.144;2022-10-16T10:03:38;26.90;51.80
36652;DHT22;53334;51.976;20.144;2022-10-16T10:06:18;26.90;51.90
36652;DHT22;53334;51.976;20.144;2022-10-16T10:09:00;26.90;52.20
36652;DHT22;53334;51.976;20.144;2022-10-16T10:11:53;26.90;52.30
36652;DHT22;53334;51.976;20.144;2022-10-16T10:14:31;26.90;52.40
36652;DHT22;53334;51.976;20.144;2022-10-16T10:17:14;26.90;52.30
36652;DHT22;53334;51.976;20.144;2022-10-16T10:19:52;26.90;52.50
36652;DHT22;53334;51.976;20.144;2022-10-16T10:22:31;26.90;53.10
36652;DHT22;53334;51.976;20.144;2022-10-16T10:25:42;26.90;52.60
36652;DHT22;53334;51.976;20.144;2022-10-16T10:31:20;27.00;53.10
36652;DHT22;53334;51.976;20.144;2022-10-16T10:34:14;26.90;53.10
36652;DHT22;53334;51.976;20.144;2022-10-16T10:36:59;27.00;52.70
36652;DHT22;53334;51.976;20.144;2022-10-16T10:39:39;27.00;52.30
36652;DHT22;53334;51.976;20.144;2022-10-16T10:42:22;27.00;52.20
36652;DHT22;53334;51.976;20.144;2022-10-16T10:45:14;27.00;52.40
36652;DHT22;53334;51.976;20.144;2022-10-16T10:48:05;27.00;51.30
36652;DHT22;53334;51.976;20.144;2022-10-16T10:50:49;27.00;51.30
36652;DHT22;53334;51.976;20.144;2022-10-16T10:53:35;27.00;51.10
36652;DHT22;53334;51.976;20.144;2022-10-16T10:56:20;27.00;51.10
36652;DHT22;53334;51.976;20.144;2022-10-16T10:59:22;27.00;50.90
36652;DHT22;53334;51.976;20.144;2022-10-16T11:02:06;27.00;51.00
36652;DHT22;53334;51.976;20.144;2022-10-16T11:04:56;27.00;51.20
36652;DHT22;53334;51.976;20.144;2022-10-16T11:07:34;27.00;51.30
36652;DHT22;53334;51.976;20.144;2022-10-16T11:10:16;27.00;51.30
36652;DHT22;53334;51.976;20.144;2022-10-16T11:12:55;27.00;51.80
36652;DHT22;53334;51.976;20.144;2022-10-16T11:15:32;27.00;52.10
36652;DHT22;53334;51.976;20.144;2022-10-16T11:18:15;27.00;53.10
36652;DHT22;53334;51.976;20.144;2022-10-16T11:20:53;27.00;52.20
36652;DHT22;53334;51.976;20.144;2022-10-16T11:23:30;27.10;52.50
36652;DHT22;53334;51.976;20.144;2022-10-16T11:26:13;27.10;52.90
36652;DHT22;53334;51.976;20.144;2022-10-16T11:28:49;27.20;54.40
36652;DHT22;53334;51.976;20.144;2022-10-16T11:31:29;27.20;54.80
36652;DHT22;53334;51.976;20.144;2022-10-16T11:34:12;27.20;55.90
36652;DHT22;53334;51.976;20.144;2022-10-16T11:36:53;27.30;57.90
36652;DHT22;53334;51.976;20.144;2022-10-16T11:39:29;27.30;58.00
36652;DHT22;53334;51.976;20.144;2022-10-16T11:42:09;27.40;58.10
36652;DHT22;53334;51.976;20.144;2022-10-16T11:44:51;27.40;54.60
36652;DHT22;53334;51.976;20.144;2022-10-16T11:47:33;27.40;52.70
36652;DHT22;53334;51.976;20.144;2022-10-16T11:50:31;27.40;54.60
36652;DHT22;53334;51.976;20.144;2022-10-16T11:53:13;27.40;55.00
36652;DHT22;53334;51.976;20.144;2022-10-16T11:55:49;27.50;55.60
36652;DHT22;53334;51.976;20.144;2022-10-16T11:58:28;27.40;54.30
36652;DHT22;53334;51.976;20.144;2022-10-16T12:01:17;27.40;53.80
36652;DHT22;53334;51.976;20.144;2022-10-16T12:04:01;27.50;54.00
36652;DHT22;53334;51.976;20.144;2022-10-16T12:06:41;27.50;54.00
36652;DHT22;53334;51.976;20.144;2022-10-16T12:09:26;27.50;54.00
36652;DHT22;53334;51.976;20.144;2022-10-16T12:12:01;27.50;54.20
36652;DHT22;53334;51.976;20.144;2022-10-16T12:14:38;27.50;54.20
36652;DHT22;53334;51.976;20.144;2022-10-16T12:17:38;27.50;54.00
36652;DHT22;53334;51.976;20.144;2022-10-16T12:20:24;27.50;50.70
36652;DHT22;53334;51.976;20.144;2022-10-16T12:23:01;27.50;50.50
36652;DHT22;53334;51.976;20.144;2022-10-16T12:25:37;27.50;51.20
36652;DHT22;53334;51.976;20.144;2022-10-16T12:28:21;27.50;51.70
36652;DHT22;53334;51.976;20.144;2022-10-16T12:31:00;27.50;52.50
36652;DHT22;53334;51.976;20.144;2022-10-16T12:33:36;27.50;53.80
36652;DHT22;53334;51.976;20.144;2022-10-16T12:36:14;27.50;54.10
36652;DHT22;53334;51.976;20.144;2022-10-16T12:38:52;27.60;54.50
36652;DHT22;53334;51.976;20.144;2022-10-16T12:41:28;27.60;54.60
36652;DHT22;53334;51.976;20.144;2022-10-16T12:44:03;27.60;54.50
36652;DHT22;53334;51.976;20.144;2022-10-16T12:46:39;27.60;54.30
36652;DHT22;53334;51.976;20.144;2022-10-16T12:49:35;27.70;54.30
36652;DHT22;53334;51.976;20.144;2022-10-16T12:52:25;27.60;54.30
36652;DHT22;53334;51.976;20.144;2022-10-16T12:55:00;27.60;54.00
36652;DHT22;53334;51.976;20.144;2022-10-16T12:57:43;27.70;54.00
36652;DHT22;53334;51.976;20.144;2022-10-16T13:00:28;27.60;53.70
36652;DHT22;53334;51.976;20.144;2022-10-16T13:03:34;27.60;53.70
36652;DHT22;53334;51.976;20.144;2022-10-16T13:06:20;27.60;53.80
36652;DHT22;53334;51.976;20.144;2022-10-16T13:09:15;27.60;53.90
36652;DHT22;53334;51.976;20.144;2022-10-16T13:12:22;27.60;54.10
36652;DHT22;53334;51.976;20.144;2022-10-16T13:15:19;27.60;54.50
36652;DHT22;53334;51.976;20.144;2022-10-16T13:18:04;27.60;54.40
36652;DHT22;53334;51.976;20.144;2022-10-16T13:20:53;27.60;54.30
36652;DHT22;53334;51.976;20.144;2022-10-16T13:23:35;27.60;54.30
36652;DHT22;53334;51.976;20.144;2022-10-16T13:26:20;27.60;54.50
36652;DHT22;53334;51.976;20.144;2022-10-16T13:28:59;27.60;54.60
36652;DHT22;53334;51.976;20.144;2022-10-16T13:31:36;27.50;54.10
36652;DHT22;53334;51.976;20.144;2022-10-16T13:34:15;27.50;51.40
36652;DHT22;53334;51.976;20.144;2022-10-16T13:36:52;27.50;49.40
36652;DHT22;53334;51.976;20.144;2022-10-16T13:39:28;27.40;50.40
36652;DHT22;53334;51.976;20.144;2022-10-16T13:42:05;27.40;51.10
36652;DHT22;53334;51.976;20.144;2022-10-16T13:44:42;27.40;51.70
36652;DHT22;53334;51.976;20.144;2022-10-16T13:47:18;27.40;52.30
36652;DHT22;53334;51.976;20.144;2022-10-16T13:50:00;27.40;52.50
36652;DHT22;53334;51.976;20.144;2022-10-16T13:52:35;27.40;53.00
36652;DHT22;53334;51.976;20.144;2022-10-16T13:55:11;27.40;53.00
36652;DHT22;53334;51.976;20.144;2022-10-16T13:57:46;27.40;53.00
36652;DHT22;53334;51.976;20.144;2022-10-16T14:00:22;27.40;53.10
36652;DHT22;53334;51.976;20.144;2022-10-16T14:03:01;27.40;53.10
36652;DHT22;53334;51.976;20.144;2022-10-16T14:05:35;27.40;53.10
36652;DHT22;53334;51.976;20.144;2022-10-16T14:08:12;27.30;52.90
36652;DHT22;53334;51.976;20.144;2022-10-16T14:10:48;27.40;53.20
36652;DHT22;53334;51.976;20.144;2022-10-16T14:13:30;27.30;53.20
36652;DHT22;53334;51.976;20.144;2022-10-16T14:16:09;27.30;53.30
36652;DHT22;53334;51.976;20.144;2022-10-16T14:18:46;27.40;53.50
36652;DHT22;53334;51.976;20.144;2022-10-16T14:21:29;27.40;53.50
36652;DHT22;53334;51.976;20.144;2022-10-16T14:24:12;27.30;53.30
36652;DHT22;53334;51.976;20.144;2022-10-16T14:26:46;27.40;53.20
36652;DHT22;53334;51.976;20.144;2022-10-16T14:29:26;27.30;53.20
36652;DHT22;53334;51.976;20.144;2022-10-16T14:32:04;27.30;53.10
36652;DHT22;53334;51.976;20.144;2022-10-16T14:34:39;27.40;53.50
36652;DHT22;53334;51.976;20.144;2022-10-16T14:37:23;27.40;53.50
36652;DHT22;53334;51.976;20.144;2022-10-16T14:40:02;27.30;53.50
36652;DHT22;53334;51.976;20.144;2022-10-16T14:42:36;27.30;53.50
36652;DHT22;53334;51.976;20.144;2022-10-16T14:45:10;27.30;53.70
36652;DHT22;53334;51.976;20.144;2022-10-16T14:47:49;27.30;53.60
36652;DHT22;53334;51.976;20.144;2022-10-16T14:50:24;27.30;51.20
36652;DHT22;53334;51.976;20.144;2022-10-16T14:52:58;27.20;50.20
36652;DHT22;53334;51.976;20.144;2022-10-16T14:55:36;27.20;50.00
36652;DHT22;53334;51.976;20.144;2022-10-16T14:58:14;27.20;50.10
36652;DHT22;53334;51.976;20.144;2022-10-16T15:00:49;27.20;50.50
36652;DHT22;53334;51.976;20.144;2022-10-16T15:03:23;27.20;50.70
36652;DHT22;53334;51.976;20.144;2022-10-16T15:05:57;27.10;50.90
36652;DHT22;53334;51.976;20.144;2022-10-16T15:08:32;27.10;51.10
36652;DHT22;53334;51.976;20.144;2022-10-16T15:11:12;27.10;51.10
36652;DHT22;53334;51.976;20.144;2022-10-16T15:13:47;27.10;51.30
36652;DHT22;53334;51.976;20.144;2022-10-16T15:16:23;27.10;51.60
36652;DHT22;53334;51.976;20.144;2022-10-16T15:18:57;27.10;51.90
36652;DHT22;53334;51.976;20.144;2022-10-16T15:21:32;27.10;51.80
36652;DHT22;53334;51.976;20.144;2022-10-16T15:24:11;27.10;51.80
36652;DHT22;53334;51.976;20.144;2022-10-16T15:26:52;27.10;51.80
36652;DHT22;53334;51.976;20.144;2022-10-16T15:29:26;27.10;51.70
36652;DHT22;53334;51.976;20.144;2022-10-16T15:32:00;27.00;51.70
36652;DHT22;53334;51.976;20.144;2022-10-16T15:34:34;27.10;51.70
36652;DHT22;53334;51.976;20.144;2022-10-16T15:37:09;27.10;51.80
36652;DHT22;53334;51.976;20.144;2022-10-16T15:39:44;27.00;51.80
36652;DHT22;53334;51.976;20.144;2022-10-16T15:42:20;27.00;51.80
36652;DHT22;53334;51.976;20.144;2022-10-16T15:44:54;27.00;51.90
36652;DHT22;53334;51.976;20.144;2022-10-16T15:47:27;27.00;52.00
36652;DHT22;53334;51.976;20.144;2022-10-16T15:50:02;27.00;52.00
36652;DHT22;53334;51.976;20.144;2022-10-16T15:52:37;27.00;52.10
36652;DHT22;53334;51.976;20.144;2022-10-16T15:55:13;27.00;52.20
36652;DHT22;53334;51.976;20.144;2022-10-16T15:57:49;27.10;52.60
36652;DHT22;53334;51.976;20.144;2022-10-16T16:00:23;27.10;53.70
36652;DHT22;53334;51.976;20.144;2022-10-16T16:02:58;27.10;53.10
36652;DHT22;53334;51.976;20.144;2022-10-16T16:05:32;27.10;53.30
36652;DHT22;53334;51.976;20.144;2022-10-16T16:08:07;27.10;53.40
36652;DHT22;53334;51.976;20.144;2022-10-16T16:10:41;27.10;53.50
36652;DHT22;53334;51.976;20.144;2022-10-16T16:13:17;27.10;53.70
36652;DHT22;53334;51.976;20.144;2022-10-16T16:15:54;27.10;53.50
36652;DHT22;53334;51.976;20.144;2022-10-16T16:18:29;27.10;53.50
36652;DHT22;53334;51.976;20.144;2022-10-16T16:21:03;27.10;53.50
36652;DHT22;53334;51.976;20.144;2022-10-16T16:23:37;27.10;53.50